sensor_id;sensor_type;location;lat;lon;timestamp;P1;durP1;ratioP1;P2;durP2;ratioP2
77417;SDS011;66490;51.484;0.026;2023-05-10T00:00:45;6.90;;;2.80;;
77417;SDS011;66490;51.484;0.026;2023-05-10T00:03:29;5.75;;;2.70;;
77417;SDS011;66490;51.484;0.026;2023-05-10T00:06:13;8.17;;;2.77;;
77417;SDS011;66490;51.484;0.026;2023-05-10T00:08:57;7.47;;;2.85;;
77417;SDS011;66490;51.484;0.026;2023-05-10T00:11:41;9.35;;;3.28;;
77417;SDS011;66490;51.484;0.026;2023-05-10T00:14:25;7.57;;;2.75;;
77417;SDS011;66490;51.484;0.026;2023-05-10T00:17:09;7.57;;;2.80;;
77417;SDS011;66490;51.484;0.026;2023-05-10T00:19:53;7.80;;;2.93;;
77417;SDS011;66490;51.484;0.026;2023-05-10T00:22:38;8.32;;;3.30;;
77417;SDS011;66490;51.484;0.026;2023-05-10T00:25:22;8.10;;;3.00;;
77417;SDS011;66490;51.484;0.026;2023-05-10T00:28:06;8.73;;;2.78;;
77417;SDS011;66490;51.484;0.026;2023-05-10T00:30:50;8.27;;;2.55;;
77417;SDS011;66490;51.484;0.026;2023-05-10T00:33:33;8.43;;;2.53;;
77417;SDS011;66490;51.484;0.026;2023-05-10T00:36:17;8.75;;;3.15;;
77417;SDS011;66490;51.484;0.026;2023-05-10T00:39:03;9.27;;;3.33;;
77417;SDS011;66490;51.484;0.026;2023-05-10T00:41:47;8.38;;;3.47;;
77417;SDS011;66490;51.484;0.026;2023-05-10T00:44:31;8.63;;;2.92;;
77417;SDS011;66490;51.484;0.026;2023-05-10T00:47:15;8.17;;;3.00;;
77417;SDS011;66490;51.484;0.026;2023-05-10T00:50:00;9.57;;;3.20;;
77417;SDS011;66490;51.484;0.026;2023-05-10T00:52:44;9.98;;;4.32;;
77417;SDS011;66490;51.484;0.026;2023-05-10T00:55:28;9.70;;;3.75;;
77417;SDS011;66490;51.484;0.026;2023-05-10T00:58:14;8.95;;;4.13;;
77417;SDS011;66490;51.484;0.026;2023-05-10T01:00:58;8.87;;;3.80;;
77417;SDS011;66490;51.484;0.026;2023-05-10T01:03:44;9.23;;;3.75;;
77417;SDS011;66490;51.484;0.026;2023-05-10T01:06:28;9.23;;;4.18;;
77417;SDS011;66490;51.484;0.026;2023-05-10T01:09:12;11.52;;;5.10;;
77417;SDS011;66490;51.484;0.026;2023-05-10T01:11:56;13.00;;;5.50;;
77417;SDS011;66490;51.484;0.026;2023-05-10T01:14:40;12.07;;;6.27;;
77417;SDS011;66490;51.484;0.026;2023-05-10T01:17:23;12.38;;;5.50;;
77417;SDS011;66490;51.484;0.026;2023-05-10T01:20:08;14.68;;;6.65;;
77417;SDS011;66490;51.484;0.026;2023-05-10T01:35:15;12.73;;;5.57;;
77417;SDS011;66490;51.484;0.026;2023-05-10T01:41:19;12.40;;;6.40;;
77417;SDS011;66490;51.484;0.026;2023-05-10T01:47:14;13.77;;;5.65;;
77417;SDS011;66490;51.484;0.026;2023-05-10T01:50:01;14.23;;;6.00;;
77417;SDS011;66490;51.484;0.026;2023-05-10T01:52:49;12.27;;;6.05;;
77417;SDS011;66490;51.484;0.026;2023-05-10T01:55:35;15.13;;;6.32;;
77417;SDS011;66490;51.484;0.026;2023-05-10T01:58:27;11.87;;;6.20;;
77417;SDS011;66490;51.484;0.026;2023-05-10T02:01:12;13.35;;;5.95;;
77417;SDS011;66490;51.484;0.026;2023-05-10T02:03:57;10.90;;;5.47;;
77417;SDS011;66490;51.484;0.026;2023-05-10T02:06:42;10.70;;;5.47;;
77417;SDS011;66490;51.484;0.026;2023-05-10T02:09:26;12.45;;;5.75;;
77417;SDS011;66490;51.484;0.026;2023-05-10T02:12:11;11.23;;;4.53;;
77417;SDS011;66490;51.484;0.026;2023-05-10T02:14:56;12.00;;;4.97;;
77417;SDS011;66490;51.484;0.026;2023-05-10T02:17:41;9.23;;;5.13;;
77417;SDS011;66490;51.484;0.026;2023-05-10T02:20:26;12.90;;;5.15;;
77417;SDS011;66490;51.484;0.026;2023-05-10T02:23:10;10.00;;;4.82;;
77417;SDS011;66490;51.484;0.026;2023-05-10T02:25:54;9.93;;;4.27;;
77417;SDS011;66490;51.484;0.026;2023-05-10T02:28:40;10.82;;;4.65;;
77417;SDS011;66490;51.484;0.026;2023-05-10T02:31:24;9.35;;;3.83;;
77417;SDS011;66490;51.484;0.026;2023-05-10T02:34:08;8.45;;;3.53;;
77417;SDS011;66490;51.484;0.026;2023-05-10T02:36:54;13.77;;;4.18;;
77417;SDS011;66490;51.484;0.026;2023-05-10T02:39:39;9.47;;;3.70;;
77417;SDS011;66490;51.484;0.026;2023-05-10T02:42:27;11.85;;;3.80;;
77417;SDS011;66490;51.484;0.026;2023-05-10T02:45:11;10.35;;;3.40;;
77417;SDS011;66490;51.484;0.026;2023-05-10T02:47:56;11.18;;;3.63;;
77417;SDS011;66490;51.484;0.026;2023-05-10T02:50:40;9.13;;;3.67;;
77417;SDS011;66490;51.484;0.026;2023-05-10T02:53:31;12.23;;;2.70;;
77417;SDS011;66490;51.484;0.026;2023-05-10T02:56:18;13.75;;;3.13;;
77417;SDS011;66490;51.484;0.026;2023-05-10T02:59:03;7.28;;;3.00;;
77417;SDS011;66490;51.484;0.026;2023-05-10T03:01:48;10.73;;;3.28;;
77417;SDS011;66490;51.484;0.026;2023-05-10T03:04:32;10.02;;;3.30;;
77417;SDS011;66490;51.484;0.026;2023-05-10T03:07:16;8.63;;;2.77;;
77417;SDS011;66490;51.484;0.026;2023-05-10T03:10:03;6.57;;;2.58;;
77417;SDS011;66490;51.484;0.026;2023-05-10T03:12:51;11.25;;;3.65;;
77417;SDS011;66490;51.484;0.026;2023-05-10T03:18:22;9.40;;;3.28;;
77417;SDS011;66490;51.484;0.026;2023-05-10T03:21:10;12.33;;;3.20;;
77417;SDS011;66490;51.484;0.026;2023-05-10T03:24:00;11.35;;;3.45;;
77417;SDS011;66490;51.484;0.026;2023-05-10T03:26:46;10.68;;;3.05;;
77417;SDS011;66490;51.484;0.026;2023-05-10T03:29:31;9.35;;;2.50;;
77417;SDS011;66490;51.484;0.026;2023-05-10T03:32:17;9.00;;;3.47;;
77417;SDS011;66490;51.484;0.026;2023-05-10T03:35:08;8.67;;;2.30;;
77417;SDS011;66490;51.484;0.026;2023-05-10T03:37:52;7.20;;;2.40;;
77417;SDS011;66490;51.484;0.026;2023-05-10T03:40:36;7.03;;;2.50;;
77417;SDS011;66490;51.484;0.026;2023-05-10T03:43:20;7.63;;;1.63;;
77417;SDS011;66490;51.484;0.026;2023-05-10T03:46:05;5.50;;;2.50;;
77417;SDS011;66490;51.484;0.026;2023-05-10T03:48:49;8.47;;;2.37;;
77417;SDS011;66490;51.484;0.026;2023-05-10T03:51:33;8.25;;;2.00;;
77417;SDS011;66490;51.484;0.026;2023-05-10T03:54:17;8.00;;;2.60;;
77417;SDS011;66490;51.484;0.026;2023-05-10T03:57:01;10.40;;;2.35;;
77417;SDS011;66490;51.484;0.026;2023-05-10T03:59:46;5.85;;;1.90;;
77417;SDS011;66490;51.484;0.026;2023-05-10T04:02:30;8.23;;;2.73;;
77417;SDS011;66490;51.484;0.026;2023-05-10T04:05:14;8.07;;;2.00;;
77417;SDS011;66490;51.484;0.026;2023-05-10T04:07:58;6.07;;;2.30;;
77417;SDS011;66490;51.484;0.026;2023-05-10T04:10:42;8.38;;;2.03;;
77417;SDS011;66490;51.484;0.026;2023-05-10T04:13:26;8.55;;;3.28;;
77417;SDS011;66490;51.484;0.026;2023-05-10T04:16:10;9.70;;;2.60;;
77417;SDS011;66490;51.484;0.026;2023-05-10T04:18:54;7.72;;;2.20;;
77417;SDS011;66490;51.484;0.026;2023-05-10T04:21:38;11.30;;;2.17;;
77417;SDS011;66490;51.484;0.026;2023-05-10T04:24:22;6.35;;;2.60;;
77417;SDS011;66490;51.484;0.026;2023-05-10T04:27:06;10.18;;;3.10;;
77417;SDS011;66490;51.484;0.026;2023-05-10T04:29:50;9.97;;;2.87;;
77417;SDS011;66490;51.484;0.026;2023-05-10T04:32:34;8.57;;;2.40;;
77417;SDS011;66490;51.484;0.026;2023-05-10T04:35:18;11.50;;;3.40;;
77417;SDS011;66490;51.484;0.026;2023-05-10T04:38:02;11.25;;;3.50;;
77417;SDS011;66490;51.484;0.026;2023-05-10T04:40:46;6.72;;;3.15;;
77417;SDS011;66490;51.484;0.026;2023-05-10T04:43:30;8.07;;;2.90;;
77417;SDS011;66490;51.484;0.026;2023-05-10T04:46:14;11.88;;;3.88;;
77417;SDS011;66490;51.484;0.026;2023-05-10T04:48:58;11.65;;;3.72;;
77417;SDS011;66490;51.484;0.026;2023-05-10T04:51:42;13.80;;;4.97;;
77417;SDS011;66490;51.484;0.026;2023-05-10T04:54:26;9.82;;;4.85;;
77417;SDS011;66490;51.484;0.026;2023-05-10T04:57:10;12.23;;;5.23;;
77417;SDS011;66490;51.484;0.026;2023-05-10T04:59:54;12.48;;;5.22;;
77417;SDS011;66490;51.484;0.026;2023-05-10T05:02:38;11.13;;;5.45;;
77417;SDS011;66490;51.484;0.026;2023-05-10T05:05:22;14.18;;;4.53;;
77417;SDS011;66490;51.484;0.026;2023-05-10T05:08:06;12.68;;;6.05;;
77417;SDS011;66490;51.484;0.026;2023-05-10T05:10:50;14.30;;;5.70;;
77417;SDS011;66490;51.484;0.026;2023-05-10T05:13:34;14.52;;;5.75;;
77417;SDS011;66490;51.484;0.026;2023-05-10T05:16:18;11.68;;;5.82;;
77417;SDS011;66490;51.484;0.026;2023-05-10T05:19:02;14.45;;;6.35;;
77417;SDS011;66490;51.484;0.026;2023-05-10T05:21:46;13.18;;;6.15;;
77417;SDS011;66490;51.484;0.026;2023-05-10T05:24:34;13.93;;;6.40;;
77417;SDS011;66490;51.484;0.026;2023-05-10T05:27:18;12.60;;;6.10;;
77417;SDS011;66490;51.484;0.026;2023-05-10T05:30:04;12.88;;;6.13;;
77417;SDS011;66490;51.484;0.026;2023-05-10T05:32:48;13.50;;;5.95;;
77417;SDS011;66490;51.484;0.026;2023-05-10T05:35:32;15.27;;;6.30;;
77417;SDS011;66490;51.484;0.026;2023-05-10T05:38:17;14.67;;;5.83;;
77417;SDS011;66490;51.484;0.026;2023-05-10T05:41:01;14.52;;;5.88;;
77417;SDS011;66490;51.484;0.026;2023-05-10T05:43:46;18.75;;;8.90;;
77417;SDS011;66490;51.484;0.026;2023-05-10T05:46:30;18.17;;;6.80;;
77417;SDS011;66490;51.484;0.026;2023-05-10T05:49:14;17.92;;;8.20;;
77417;SDS011;66490;51.484;0.026;2023-05-10T05:51:58;16.97;;;6.83;;
77417;SDS011;66490;51.484;0.026;2023-05-10T05:54:42;31.65;;;8.48;;
77417;SDS011;66490;51.484;0.026;2023-05-10T05:57:26;15.80;;;7.70;;
77417;SDS011;66490;51.484;0.026;2023-05-10T06:00:10;19.15;;;8.23;;
77417;SDS011;66490;51.484;0.026;2023-05-10T06:02:54;19.92;;;8.23;;
77417;SDS011;66490;51.484;0.026;2023-05-10T06:05:38;17.20;;;8.70;;
77417;SDS011;66490;51.484;0.026;2023-05-10T06:08:22;20.58;;;10.52;;
77417;SDS011;66490;51.484;0.026;2023-05-10T06:11:06;21.38;;;10.20;;
77417;SDS011;66490;51.484;0.026;2023-05-10T06:13:50;24.23;;;10.98;;
77417;SDS011;66490;51.484;0.026;2023-05-10T06:16:35;20.15;;;10.10;;
77417;SDS011;66490;51.484;0.026;2023-05-10T06:19:19;20.50;;;9.53;;
77417;SDS011;66490;51.484;0.026;2023-05-10T06:22:03;18.40;;;9.80;;
77417;SDS011;66490;51.484;0.026;2023-05-10T06:24:47;17.58;;;9.90;;
77417;SDS011;66490;51.484;0.026;2023-05-10T06:27:31;20.35;;;9.00;;
77417;SDS011;66490;51.484;0.026;2023-05-10T06:30:15;15.90;;;8.82;;
77417;SDS011;66490;51.484;0.026;2023-05-10T06:32:59;15.87;;;7.97;;
77417;SDS011;66490;51.484;0.026;2023-05-10T06:35:43;17.88;;;8.10;;
77417;SDS011;66490;51.484;0.026;2023-05-10T06:38:27;17.45;;;8.25;;
77417;SDS011;66490;51.484;0.026;2023-05-10T06:41:12;16.77;;;9.05;;
77417;SDS011;66490;51.484;0.026;2023-05-10T06:43:56;20.90;;;9.43;;
77417;SDS011;66490;51.484;0.026;2023-05-10T06:46:40;20.83;;;8.90;;
77417;SDS011;66490;51.484;0.026;2023-05-10T06:49:25;20.98;;;8.15;;
77417;SDS011;66490;51.484;0.026;2023-05-10T06:52:09;19.65;;;9.75;;
77417;SDS011;66490;51.484;0.026;2023-05-10T06:54:53;21.75;;;8.57;;
77417;SDS011;66490;51.484;0.026;2023-05-10T06:57:37;21.83;;;9.70;;
77417;SDS011;66490;51.484;0.026;2023-05-10T07:00:20;22.00;;;8.20;;
77417;SDS011;66490;51.484;0.026;2023-05-10T07:03:05;19.55;;;7.93;;
77417;SDS011;66490;51.484;0.026;2023-05-10T07:05:51;19.08;;;7.80;;
77417;SDS011;66490;51.484;0.026;2023-05-10T07:08:35;18.65;;;7.93;;
77417;SDS011;66490;51.484;0.026;2023-05-10T07:11:21;18.85;;;9.13;;
77417;SDS011;66490;51.484;0.026;2023-05-10T07:14:08;16.73;;;6.57;;
77417;SDS011;66490;51.484;0.026;2023-05-10T07:16:53;16.13;;;8.43;;
77417;SDS011;66490;51.484;0.026;2023-05-10T07:19:37;17.20;;;7.70;;
77417;SDS011;66490;51.484;0.026;2023-05-10T07:22:21;19.05;;;6.63;;
77417;SDS011;66490;51.484;0.026;2023-05-10T07:25:06;14.68;;;6.72;;
77417;SDS011;66490;51.484;0.026;2023-05-10T07:27:50;14.43;;;5.60;;
77417;SDS011;66490;51.484;0.026;2023-05-10T07:30:34;11.90;;;5.47;;
77417;SDS011;66490;51.484;0.026;2023-05-10T07:33:18;15.82;;;6.32;;
77417;SDS011;66490;51.484;0.026;2023-05-10T07:36:02;15.98;;;6.38;;
77417;SDS011;66490;51.484;0.026;2023-05-10T07:38:46;16.10;;;8.00;;
77417;SDS011;66490;51.484;0.026;2023-05-10T07:41:30;13.93;;;5.77;;
77417;SDS011;66490;51.484;0.026;2023-05-10T07:44:14;12.07;;;6.22;;
77417;SDS011;66490;51.484;0.026;2023-05-10T07:46:59;16.13;;;6.47;;
77417;SDS011;66490;51.484;0.026;2023-05-10T07:49:43;14.68;;;5.63;;
77417;SDS011;66490;51.484;0.026;2023-05-10T07:52:27;15.30;;;5.65;;
77417;SDS011;66490;51.484;0.026;2023-05-10T07:55:11;13.90;;;5.33;;
77417;SDS011;66490;51.484;0.026;2023-05-10T07:57:54;12.40;;;4.80;;
77417;SDS011;66490;51.484;0.026;2023-05-10T08:00:38;13.82;;;5.10;;
77417;SDS011;66490;51.484;0.026;2023-05-10T08:03:23;13.85;;;4.07;;
77417;SDS011;66490;51.484;0.026;2023-05-10T08:06:07;13.57;;;4.47;;
77417;SDS011;66490;51.484;0.026;2023-05-10T08:08:51;15.83;;;4.07;;
77417;SDS011;66490;51.484;0.026;2023-05-10T08:11:37;13.45;;;3.33;;
77417;SDS011;66490;51.484;0.026;2023-05-10T08:14:22;12.57;;;3.83;;
77417;SDS011;66490;51.484;0.026;2023-05-10T08:19:55;11.82;;;4.63;;
77417;SDS011;66490;51.484;0.026;2023-05-10T08:22:43;11.90;;;4.33;;
77417;SDS011;66490;51.484;0.026;2023-05-10T08:25:27;13.00;;;4.28;;
77417;SDS011;66490;51.484;0.026;2023-05-10T08:28:11;14.15;;;4.88;;
77417;SDS011;66490;51.484;0.026;2023-05-10T08:30:55;9.65;;;3.22;;
77417;SDS011;66490;51.484;0.026;2023-05-10T08:33:39;13.43;;;4.43;;
77417;SDS011;66490;51.484;0.026;2023-05-10T08:36:25;11.63;;;3.43;;
77417;SDS011;66490;51.484;0.026;2023-05-10T08:39:09;11.57;;;3.65;;
77417;SDS011;66490;51.484;0.026;2023-05-10T08:41:53;14.27;;;4.20;;
77417;SDS011;66490;51.484;0.026;2023-05-10T08:44:38;16.15;;;4.30;;
77417;SDS011;66490;51.484;0.026;2023-05-10T08:47:22;9.13;;;3.75;;
77417;SDS011;66490;51.484;0.026;2023-05-10T08:50:06;11.83;;;3.50;;
77417;SDS011;66490;51.484;0.026;2023-05-10T08:52:50;14.45;;;3.95;;
77417;SDS011;66490;51.484;0.026;2023-05-10T08:55:36;14.00;;;4.35;;
77417;SDS011;66490;51.484;0.026;2023-05-10T08:58:21;12.23;;;4.47;;
77417;SDS011;66490;51.484;0.026;2023-05-10T09:01:05;11.70;;;5.13;;
77417;SDS011;66490;51.484;0.026;2023-05-10T09:03:50;11.20;;;3.87;;
77417;SDS011;66490;51.484;0.026;2023-05-10T09:06:34;9.85;;;3.22;;
77417;SDS011;66490;51.484;0.026;2023-05-10T09:09:19;10.55;;;3.63;;
77417;SDS011;66490;51.484;0.026;2023-05-10T09:12:03;11.77;;;3.65;;
77417;SDS011;66490;51.484;0.026;2023-05-10T09:14:48;10.55;;;5.03;;
77417;SDS011;66490;51.484;0.026;2023-05-10T09:17:34;16.43;;;4.90;;
77417;SDS011;66490;51.484;0.026;2023-05-10T09:20:18;14.18;;;4.00;;
77417;SDS011;66490;51.484;0.026;2023-05-10T09:23:02;12.10;;;4.32;;
77417;SDS011;66490;51.484;0.026;2023-05-10T09:25:46;12.38;;;4.95;;
77417;SDS011;66490;51.484;0.026;2023-05-10T09:28:34;14.07;;;4.00;;
77417;SDS011;66490;51.484;0.026;2023-05-10T09:31:18;11.27;;;3.57;;
77417;SDS011;66490;51.484;0.026;2023-05-10T09:34:02;11.10;;;4.10;;
77417;SDS011;66490;51.484;0.026;2023-05-10T09:39:37;8.35;;;2.67;;
77417;SDS011;66490;51.484;0.026;2023-05-10T09:42:20;10.63;;;3.47;;
77417;SDS011;66490;51.484;0.026;2023-05-10T09:45:05;10.77;;;3.20;;
77417;SDS011;66490;51.484;0.026;2023-05-10T09:47:49;13.88;;;4.50;;
77417;SDS011;66490;51.484;0.026;2023-05-10T09:50:33;10.55;;;3.90;;
77417;SDS011;66490;51.484;0.026;2023-05-10T09:53:17;9.00;;;3.47;;
77417;SDS011;66490;51.484;0.026;2023-05-10T09:56:01;10.25;;;3.33;;
77417;SDS011;66490;51.484;0.026;2023-05-10T09:58:45;8.67;;;2.50;;
77417;SDS011;66490;51.484;0.026;2023-05-10T10:01:29;9.02;;;2.58;;
77417;SDS011;66490;51.484;0.026;2023-05-10T10:04:14;9.88;;;3.50;;
77417;SDS011;66490;51.484;0.026;2023-05-10T10:07:02;8.05;;;3.25;;
77417;SDS011;66490;51.484;0.026;2023-05-10T10:09:46;10.23;;;4.30;;
77417;SDS011;66490;51.484;0.026;2023-05-10T10:12:30;10.97;;;3.93;;
77417;SDS011;66490;51.484;0.026;2023-05-10T10:15:14;8.80;;;4.15;;
77417;SDS011;66490;51.484;0.026;2023-05-10T10:17:58;12.35;;;3.83;;
77417;SDS011;66490;51.484;0.026;2023-05-10T10:20:43;9.82;;;3.05;;
77417;SDS011;66490;51.484;0.026;2023-05-10T10:23:28;8.85;;;3.65;;
77417;SDS011;66490;51.484;0.026;2023-05-10T10:26:14;7.60;;;3.20;;
77417;SDS011;66490;51.484;0.026;2023-05-10T10:32:11;9.30;;;3.38;;
77417;SDS011;66490;51.484;0.026;2023-05-10T10:34:53;11.90;;;3.80;;
77417;SDS011;66490;51.484;0.026;2023-05-10T10:37:45;10.65;;;3.35;;
77417;SDS011;66490;51.484;0.026;2023-05-10T10:40:33;12.37;;;4.87;;
77417;SDS011;66490;51.484;0.026;2023-05-10T10:43:24;11.10;;;3.25;;
77417;SDS011;66490;51.484;0.026;2023-05-10T10:46:28;9.73;;;3.90;;
77417;SDS011;66490;51.484;0.026;2023-05-10T10:49:14;11.50;;;3.30;;
77417;SDS011;66490;51.484;0.026;2023-05-10T10:55:02;8.13;;;2.88;;
77417;SDS011;66490;51.484;0.026;2023-05-10T11:00:38;9.52;;;3.05;;
77417;SDS011;66490;51.484;0.026;2023-05-10T11:03:24;8.50;;;3.43;;
77417;SDS011;66490;51.484;0.026;2023-05-10T11:06:09;7.38;;;3.65;;
77417;SDS011;66490;51.484;0.026;2023-05-10T11:08:53;10.35;;;3.80;;
77417;SDS011;66490;51.484;0.026;2023-05-10T11:12:10;8.60;;;2.95;;
77417;SDS011;66490;51.484;0.026;2023-05-10T11:14:49;8.20;;;3.25;;
77417;SDS011;66490;51.484;0.026;2023-05-10T11:17:34;9.63;;;2.67;;
77417;SDS011;66490;51.484;0.026;2023-05-10T11:20:18;7.78;;;2.72;;
77417;SDS011;66490;51.484;0.026;2023-05-10T11:23:11;5.68;;;2.60;;
77417;SDS011;66490;51.484;0.026;2023-05-10T11:26:00;8.43;;;2.63;;
77417;SDS011;66490;51.484;0.026;2023-05-10T11:28:45;8.18;;;2.85;;
77417;SDS011;66490;51.484;0.026;2023-05-10T11:31:29;10.20;;;3.30;;
77417;SDS011;66490;51.484;0.026;2023-05-10T11:34:26;8.40;;;3.40;;
77417;SDS011;66490;51.484;0.026;2023-05-10T11:37:11;8.07;;;3.63;;
77417;SDS011;66490;51.484;0.026;2023-05-10T11:39:55;8.73;;;3.22;;
77417;SDS011;66490;51.484;0.026;2023-05-10T11:42:39;8.23;;;2.88;;
77417;SDS011;66490;51.484;0.026;2023-05-10T11:45:24;7.53;;;2.40;;
77417;SDS011;66490;51.484;0.026;2023-05-10T11:48:08;6.10;;;2.28;;
77417;SDS011;66490;51.484;0.026;2023-05-10T11:50:52;8.25;;;3.03;;
77417;SDS011;66490;51.484;0.026;2023-05-10T11:53:39;5.93;;;2.15;;
77417;SDS011;66490;51.484;0.026;2023-05-10T11:56:23;5.35;;;1.80;;
77417;SDS011;66490;51.484;0.026;2023-05-10T11:59:08;5.47;;;1.83;;
77417;SDS011;66490;51.484;0.026;2023-05-10T12:01:52;5.25;;;1.42;;
77417;SDS011;66490;51.484;0.026;2023-05-10T12:04:36;4.88;;;1.50;;
77417;SDS011;66490;51.484;0.026;2023-05-10T12:07:23;10.18;;;1.98;;
77417;SDS011;66490;51.484;0.026;2023-05-10T12:10:11;6.10;;;2.47;;
77417;SDS011;66490;51.484;0.026;2023-05-10T12:12:58;8.00;;;2.10;;
77417;SDS011;66490;51.484;0.026;2023-05-10T12:15:42;7.47;;;1.75;;
77417;SDS011;66490;51.484;0.026;2023-05-10T12:18:26;6.68;;;2.30;;
77417;SDS011;66490;51.484;0.026;2023-05-10T12:21:11;9.13;;;2.92;;
77417;SDS011;66490;51.484;0.026;2023-05-10T12:23:59;4.97;;;2.28;;
77417;SDS011;66490;51.484;0.026;2023-05-10T12:26:45;8.17;;;1.73;;
77417;SDS011;66490;51.484;0.026;2023-05-10T12:29:29;6.78;;;1.58;;
77417;SDS011;66490;51.484;0.026;2023-05-10T12:32:13;5.90;;;2.35;;
77417;SDS011;66490;51.484;0.026;2023-05-10T12:34:57;7.93;;;2.10;;
77417;SDS011;66490;51.484;0.026;2023-05-10T12:37:42;6.47;;;2.10;;
77417;SDS011;66490;51.484;0.026;2023-05-10T12:40:25;5.30;;;1.70;;
77417;SDS011;66490;51.484;0.026;2023-05-10T12:43:09;8.02;;;2.15;;
77417;SDS011;66490;51.484;0.026;2023-05-10T12:45:53;6.30;;;1.85;;
77417;SDS011;66490;51.484;0.026;2023-05-10T12:48:39;7.55;;;1.92;;
77417;SDS011;66490;51.484;0.026;2023-05-10T12:51:24;7.85;;;2.50;;
77417;SDS011;66490;51.484;0.026;2023-05-10T12:54:08;6.20;;;1.63;;
77417;SDS011;66490;51.484;0.026;2023-05-10T12:56:52;8.13;;;2.35;;
77417;SDS011;66490;51.484;0.026;2023-05-10T12:59:36;6.82;;;2.10;;
77417;SDS011;66490;51.484;0.026;2023-05-10T13:02:20;6.57;;;1.80;;
77417;SDS011;66490;51.484;0.026;2023-05-10T13:05:06;6.72;;;2.10;;
77417;SDS011;66490;51.484;0.026;2023-05-10T13:07:50;7.40;;;2.60;;
77417;SDS011;66490;51.484;0.026;2023-05-10T13:10:34;7.82;;;2.40;;
77417;SDS011;66490;51.484;0.026;2023-05-10T13:13:18;7.38;;;2.58;;
77417;SDS011;66490;51.484;0.026;2023-05-10T13:16:02;9.82;;;2.58;;
77417;SDS011;66490;51.484;0.026;2023-05-10T13:18:46;7.53;;;2.38;;
77417;SDS011;66490;51.484;0.026;2023-05-10T13:21:30;7.87;;;1.77;;
77417;SDS011;66490;51.484;0.026;2023-05-10T13:24:14;7.13;;;2.33;;
77417;SDS011;66490;51.484;0.026;2023-05-10T13:26:58;5.50;;;2.50;;
77417;SDS011;66490;51.484;0.026;2023-05-10T13:29:42;8.80;;;2.95;;
77417;SDS011;66490;51.484;0.026;2023-05-10T13:32:26;10.70;;;2.60;;
77417;SDS011;66490;51.484;0.026;2023-05-10T13:35:11;8.17;;;2.00;;
77417;SDS011;66490;51.484;0.026;2023-05-10T13:37:54;6.15;;;2.30;;
77417;SDS011;66490;51.484;0.026;2023-05-10T13:40:41;7.47;;;2.78;;
77417;SDS011;66490;51.484;0.026;2023-05-10T13:43:25;10.20;;;2.22;;
77417;SDS011;66490;51.484;0.026;2023-05-10T13:46:09;4.93;;;1.77;;
77417;SDS011;66490;51.484;0.026;2023-05-10T13:48:53;6.20;;;1.50;;
77417;SDS011;66490;51.484;0.026;2023-05-10T13:51:37;3.53;;;1.33;;
77417;SDS011;66490;51.484;0.026;2023-05-10T13:54:21;6.15;;;1.88;;
77417;SDS011;66490;51.484;0.026;2023-05-10T13:57:05;3.47;;;1.20;;
77417;SDS011;66490;51.484;0.026;2023-05-10T13:59:51;6.05;;;2.03;;
77417;SDS011;66490;51.484;0.026;2023-05-10T14:02:36;9.70;;;1.70;;
77417;SDS011;66490;51.484;0.026;2023-05-10T14:05:20;7.20;;;1.60;;
77417;SDS011;66490;51.484;0.026;2023-05-10T14:08:06;6.95;;;1.92;;
77417;SDS011;66490;51.484;0.026;2023-05-10T14:10:52;4.32;;;1.88;;
77417;SDS011;66490;51.484;0.026;2023-05-10T14:13:36;4.22;;;1.35;;
77417;SDS011;66490;51.484;0.026;2023-05-10T14:16:21;4.77;;;1.20;;
77417;SDS011;66490;51.484;0.026;2023-05-10T14:19:05;4.05;;;1.17;;
77417;SDS011;66490;51.484;0.026;2023-05-10T14:21:49;4.25;;;1.30;;
77417;SDS011;66490;51.484;0.026;2023-05-10T14:24:33;6.43;;;1.38;;
77417;SDS011;66490;51.484;0.026;2023-05-10T14:27:17;3.28;;;1.48;;
77417;SDS011;66490;51.484;0.026;2023-05-10T14:30:01;3.07;;;1.10;;
77417;SDS011;66490;51.484;0.026;2023-05-10T14:32:45;4.70;;;1.50;;
77417;SDS011;66490;51.484;0.026;2023-05-10T14:35:29;4.38;;;1.00;;
77417;SDS011;66490;51.484;0.026;2023-05-10T14:38:15;3.90;;;1.58;;
77417;SDS011;66490;51.484;0.026;2023-05-10T14:40:59;5.53;;;1.40;;
77417;SDS011;66490;51.484;0.026;2023-05-10T14:43:44;3.93;;;1.20;;
77417;SDS011;66490;51.484;0.026;2023-05-10T14:46:27;3.97;;;1.10;;
77417;SDS011;66490;51.484;0.026;2023-05-10T14:49:13;4.85;;;1.20;;
77417;SDS011;66490;51.484;0.026;2023-05-10T14:51:57;4.03;;;1.40;;
77417;SDS011;66490;51.484;0.026;2023-05-10T14:54:41;5.70;;;1.23;;
77417;SDS011;66490;51.484;0.026;2023-05-10T14:57:25;4.03;;;1.37;;
77417;SDS011;66490;51.484;0.026;2023-05-10T15:00:09;3.55;;;1.30;;
77417;SDS011;66490;51.484;0.026;2023-05-10T15:02:54;5.13;;;1.17;;
77417;SDS011;66490;51.484;0.026;2023-05-10T15:05:38;3.90;;;1.05;;
77417;SDS011;66490;51.484;0.026;2023-05-10T15:08:22;3.83;;;1.23;;
77417;SDS011;66490;51.484;0.026;2023-05-10T15:11:07;3.00;;;0.90;;
77417;SDS011;66490;51.484;0.026;2023-05-10T15:13:51;3.03;;;1.08;;
77417;SDS011;66490;51.484;0.026;2023-05-10T15:16:35;4.85;;;1.30;;
77417;SDS011;66490;51.484;0.026;2023-05-10T15:19:19;4.20;;;0.90;;
77417;SDS011;66490;51.484;0.026;2023-05-10T15:22:06;4.30;;;1.45;;
77417;SDS011;66490;51.484;0.026;2023-05-10T15:24:53;3.80;;;1.23;;
77417;SDS011;66490;51.484;0.026;2023-05-10T15:27:37;6.20;;;1.30;;
77417;SDS011;66490;51.484;0.026;2023-05-10T15:30:21;5.20;;;1.20;;
77417;SDS011;66490;51.484;0.026;2023-05-10T15:33:05;4.90;;;1.70;;
77417;SDS011;66490;51.484;0.026;2023-05-10T15:35:49;5.35;;;1.67;;
77417;SDS011;66490;51.484;0.026;2023-05-10T15:38:33;4.13;;;0.97;;
77417;SDS011;66490;51.484;0.026;2023-05-10T15:41:17;4.50;;;1.08;;
77417;SDS011;66490;51.484;0.026;2023-05-10T15:44:01;3.97;;;1.33;;
77417;SDS011;66490;51.484;0.026;2023-05-10T15:46:45;3.60;;;0.90;;
77417;SDS011;66490;51.484;0.026;2023-05-10T15:49:29;5.07;;;1.10;;
77417;SDS011;66490;51.484;0.026;2023-05-10T15:52:13;3.93;;;1.20;;
77417;SDS011;66490;51.484;0.026;2023-05-10T15:54:57;3.75;;;1.00;;
77417;SDS011;66490;51.484;0.026;2023-05-10T15:57:42;3.38;;;0.95;;
77417;SDS011;66490;51.484;0.026;2023-05-10T16:00:26;3.67;;;1.00;;
77417;SDS011;66490;51.484;0.026;2023-05-10T16:03:11;2.55;;;1.00;;
77417;SDS011;66490;51.484;0.026;2023-05-10T16:05:56;4.17;;;1.00;;
77417;SDS011;66490;51.484;0.026;2023-05-10T16:08:39;3.17;;;0.85;;
77417;SDS011;66490;51.484;0.026;2023-05-10T16:11:23;6.63;;;1.40;;
77417;SDS011;66490;51.484;0.026;2023-05-10T16:14:07;7.85;;;3.13;;
77417;SDS011;66490;51.484;0.026;2023-05-10T16:16:51;4.18;;;0.85;;
77417;SDS011;66490;51.484;0.026;2023-05-10T16:19:35;5.23;;;0.93;;
77417;SDS011;66490;51.484;0.026;2023-05-10T16:22:19;4.97;;;1.25;;
77417;SDS011;66490;51.484;0.026;2023-05-10T16:25:04;5.47;;;1.92;;
77417;SDS011;66490;51.484;0.026;2023-05-10T16:27:49;4.40;;;0.88;;
77417;SDS011;66490;51.484;0.026;2023-05-10T16:30:33;6.70;;;1.90;;
77417;SDS011;66490;51.484;0.026;2023-05-10T16:33:17;8.47;;;3.07;;
77417;SDS011;66490;51.484;0.026;2023-05-10T16:36:01;6.85;;;1.77;;
77417;SDS011;66490;51.484;0.026;2023-05-10T16:38:46;5.00;;;1.55;;
77417;SDS011;66490;51.484;0.026;2023-05-10T16:41:33;5.90;;;1.67;;
77417;SDS011;66490;51.484;0.026;2023-05-10T16:44:17;6.28;;;1.80;;
77417;SDS011;66490;51.484;0.026;2023-05-10T16:47:01;4.67;;;1.50;;
77417;SDS011;66490;51.484;0.026;2023-05-10T16:49:46;2.78;;;1.08;;
77417;SDS011;66490;51.484;0.026;2023-05-10T16:52:30;5.20;;;1.45;;
77417;SDS011;66490;51.484;0.026;2023-05-10T16:55:15;3.88;;;1.00;;
77417;SDS011;66490;51.484;0.026;2023-05-10T16:57:58;6.05;;;1.40;;
77417;SDS011;66490;51.484;0.026;2023-05-10T17:00:43;7.03;;;1.20;;